Rural, Indiana
Current Conditions -  °F | °C
As of 1:53 AM on Saturday 25 Oct 2014 (Local Time) from KMIE Reporting Station
Clear Clear  
Wind Chill: 53°   Ceiling: Unl
Heat Index: 53°   Visibility: 8mi
Dew Point: 48°   Wind: 6mph
Humidity: 83%   Direction: 220°SW
Pressure: 29.99"   Gusts: NA
Location:  40.1634°N, 85.045°W
Report Text: KMIE 250553Z AUTO 22005KT 8SM CLR 12/09 A2999 RMK AO2 SLP150 T01170089 10144 20111 58010
Loading
Personal Weather Stations






























Interactive Weather Map
Tropical Storm Tracking
New forecast layout! Learn more

10-Day Weather Forecast

Advertisements
Track Severe Weather on mobile